• Join FlightAware (Why Join?)
  • Login
  • US Flag 
06:01AM EDT


 

Airport Tracker/Info


-or-


 

Live Flight TrackerFlight Track Log ✈ ZK-OKP ✈ 24-Apr-2013 ✈ NZAA / AKL - YMML / MEL

Flight Track Log - Related Links

Times and Time Zones

All times are in EDT time to prevent confusion due to time zone crossing. See the ZK-OKP flight status page for this flight to view local times or setup timezone preferences in your user account.

Time Position Orientation Groundspeed Altitude Reporting Facility
EDT Latitude Longitude Course Direction KTS MPH feet Rate Location/Type
04:53PM -37.0280 174.7300 247° West 188 216 1,900  Level FlightAware
04:54PM -37.0310 174.7180 253° West 188 216 2,200 420 Climbing FlightAware
04:54PM -37.0380 174.6940 250° West 188 216 2,200 1,980 Level FlightAware
04:55PM -37.0540 174.6350 251° West 241 277 4,400 1,980 Climbing FlightAware
04:55PM -37.0620 174.6050 252° West 241 277 4,400 2,640 Level FlightAware
04:56PM -37.0800 174.5410 251° West 252 290 7,500 2,640 Climbing FlightAware
04:56PM -37.0880 174.5100 252° West 252 290 7,500 120 Level FlightAware
04:59PM -37.1299 174.2250 259° West  Level Estimated
05:00PM -37.1493 174.0913 260° West  Level Estimated
05:01PM -37.1685 173.9575 260° West  Level Estimated
05:02PM -37.1876 173.8237 260° West  Level Estimated
05:03PM -37.2065 173.6898 260° West  Level Estimated
05:04PM -37.2253 173.5558 260° West  Level Estimated
05:05PM -37.2440 173.4218 260° West  Level Estimated
05:06PM -37.2625 173.2877 260° West  Level Estimated
05:07PM -37.2808 173.1535 260° West  Level Estimated
05:08PM -37.2990 173.0193 260° West  Level Estimated
05:09PM -37.3170 172.8849 260° West  Level Estimated
05:10PM -37.3349 172.7506 260° West  Level Estimated
05:11PM -37.3526 172.6161 261° West  Level Estimated
05:12PM -37.3702 172.4817 261° West  Level Estimated
05:13PM -37.3876 172.3471 261° West  Level Estimated
05:14PM -37.4049 172.2125 261° West  Level Estimated
05:15PM -37.4220 172.0778 261° West  Level Estimated
05:16PM -37.4390 171.9431 261° West  Level Estimated
05:17PM -37.4558 171.8083 261° West  Level Estimated
05:18PM -37.4725 171.6734 261° West  Level Estimated
05:19PM -37.4890 171.5385 261° West  Level Estimated
05:20PM -37.5053 171.4035 261° West  Level Estimated
05:21PM -37.5215 171.2685 261° West  Level Estimated
05:22PM -37.5376 171.1334 261° West  Level Estimated
05:23PM -37.5535 170.9982 262° West  Level Estimated
05:24PM -37.5692 170.8630 262° West  Level Estimated
05:25PM -37.5848 170.7277 262° West  Level Estimated
05:26PM -37.6002 170.5924 262° West  Level Estimated
05:27PM -37.6155 170.4570 262° West  Level Estimated
05:28PM -37.6306 170.3216 262° West  Level Estimated
05:29PM -37.6456 170.1861 262° West  Level Estimated
05:30PM -37.6604 170.0505 262° West  Level Estimated
05:31PM -37.6751 169.9149 262° West  Level Estimated
05:32PM -37.6896 169.7793 262° West  Level Estimated
05:33PM -37.7039 169.6436 262° West  Level Estimated
05:34PM -37.7181 169.5078 262° West  Level Estimated
05:35PM -37.7321 169.3720 263° West  Level Estimated
05:36PM -37.7460 169.2361 263° West  Level Estimated
05:37PM -37.7597 169.1002 263° West  Level Estimated
05:38PM -37.7733 168.9643 263° West  Level Estimated
05:39PM -37.7867 168.8283 263° West  Level Estimated
05:40PM -37.8000 168.6922 263° West  Level Estimated
05:41PM -37.8131 168.5561 263° West  Level Estimated
05:42PM -37.8260 168.4199 263° West  Level Estimated
05:43PM -37.8388 168.2837 263° West  Level Estimated
05:44PM -37.8514 168.1475 263° West  Level Estimated
05:45PM -37.8639 168.0112 263° West  Level Estimated
05:46PM -37.8762 167.8748 263° West  Level Estimated
05:47PM -37.8884 167.7384 264° West  Level Estimated
05:48PM -37.9003 167.6020 264° West  Level Estimated
05:49PM -37.9122 167.4655 264° West  Level Estimated
05:50PM -37.9239 167.3290 264° West  Level Estimated
05:51PM -37.9354 167.1924 264° West  Level Estimated
05:52PM -37.9468 167.0558 264° West  Level Estimated
05:53PM -37.9580 166.9192 264° West  Level Estimated
05:54PM -37.9690 166.7825 264° West  Level Estimated
05:55PM -37.9799 166.6457 264° West  Level Estimated
05:56PM -37.9906 166.5090 264° West  Level Estimated
05:57PM -38.0012 166.3722 264° West  Level Estimated
05:58PM -38.0116 166.2353 264° West  Level Estimated
05:59PM -38.0219 166.0984 265° West  Level Estimated
06:00PM -38.0320 165.9615 265° West  Level Estimated
06:01PM -38.0419 165.8245 265° West  Level Estimated
06:02PM -38.0517 165.6875 265° West  Level Estimated
06:03PM -38.0613 165.5505 265° West  Level Estimated
06:04PM -38.0708 165.4134 265° West  Level Estimated
06:05PM -38.0801 165.2763 265° West  Level Estimated
06:06PM -38.0892 165.1391 265° West  Level Estimated
06:07PM -38.0991 164.9882 265° West  Level Estimated
06:08PM -38.1088 164.8371 265° West  Level Estimated
06:09PM -38.1183 164.6859 265° West  Level Estimated
06:10PM -38.1276 164.5347 265° West  Level Estimated
06:11PM -38.1367 164.3835 266° West  Level Estimated
06:12PM -38.1457 164.2323 266° West  Level Estimated
06:13PM -38.1544 164.0810 266° West  Level Estimated
06:14PM -38.1629 163.9297 266° West  Level Estimated
06:14PM -38.5835 162.8621 268° West 36,000  Level Aus ATC (Calculated)
06:14PM -38.5835 162.8621 268° West 36,000  Level Aus ATC (Calculated)
06:16PM -38.5890 162.6500 268° West  Level Estimated
06:17PM -38.5923 162.5101 268° West  Level Estimated
06:17PM -38.5932 162.4461 269° West 36,000  Level Aus ATC (Calculated)
06:18PM -38.5963 162.2939 269° West 36,000  Level Aus ATC (Calculated)
06:19PM -38.5993 162.1673 268° West  Level Estimated
06:20PM -38.6021 162.0268 268° West  Level Estimated
06:21PM -38.6047 161.8768 268° West  Level Estimated
06:22PM -38.6072 161.7362 269° West  Level Estimated
06:23PM -38.6095 161.5956 269° West  Level Estimated
06:24PM -38.6116 161.4550 269° West  Level Estimated
06:25PM -38.6136 161.3143 269° West  Level Estimated
06:26PM -38.6154 161.1737 269° West  Level Estimated
06:27PM -38.6170 161.0331 269° West  Level Estimated
06:28PM -38.6185 160.8924 269° West  Level Estimated
06:29PM -38.6198 160.7517 269° West  Level Estimated
06:30PM -38.6209 160.6111 269° West  Level Estimated
06:31PM -38.6219 160.4704 269° West  Level Estimated
06:32PM -38.6227 160.3297 270° West  Level Estimated
06:33PM -38.6233 160.1891 270° West  Level Estimated
06:34PM -38.6238 160.0484 270° West  Level Estimated
06:35PM -38.6241 159.9077 270° West  Level Estimated
06:36PM -38.6242 159.7670 270° West  Level Estimated
06:37PM -38.6241 159.6264 270° West  Level Estimated
06:38PM -38.6239 159.4857 270° West  Level Estimated
06:39PM -38.6236 159.3450 270° West  Level Estimated
06:40PM -38.6230 159.2043 270° West  Level Estimated
06:41PM -38.6223 159.0637 270° West  Level Estimated
06:42PM -38.6214 158.9230 270° West  Level Estimated
06:43PM -38.6203 158.7823 271° West  Level Estimated
06:43PM -38.6086 158.2780 271° West 36,000  Level Aus ATC (Calculated)
06:43PM -38.6086 158.2780 271° West 36,000  Level Aus ATC (Calculated)
06:44PM -38.6191 158.6417 271° West  Level Estimated
06:45PM -38.6058 158.0577 271° West  Level Estimated
06:46PM -38.6037 157.9171 271° West  Level Estimated
06:47PM -38.6016 157.7765 271° West  Level Estimated
06:48PM -38.5992 157.6359 271° West  Level Estimated
06:49PM -38.5967 157.4953 271° West  Level Estimated
06:50PM -38.5940 157.3547 271° West  Level Estimated
06:51PM -38.5911 157.2141 271° West  Level Estimated
06:52PM -38.5881 157.0736 272° West  Level Estimated
06:53PM -38.5849 156.9330 272° West  Level Estimated
06:54PM -38.5815 156.7925 272° West  Level Estimated
06:54PM -38.5669 156.4039 272° West 36,000  Level Aus ATC (Calculated)
06:55PM -38.5779 156.6520 272° West  Level Estimated
06:56PM -38.5742 156.5115 272° West  Level Estimated
06:57PM -38.5572 156.0692 272° West  Level Estimated
06:58PM -38.5528 155.9287 272° West  Level Estimated
06:59PM -38.5483 155.7883 272° West  Level Estimated
07:00PM -38.5436 155.6479 272° West  Level Estimated
07:01PM -38.5388 155.5075 272° West  Level Estimated
07:02PM -38.5338 155.3672 273° West  Level Estimated
07:03PM -38.5286 155.2268 273° West  Level Estimated
07:04PM -38.5232 155.0865 273° West  Level Estimated
07:05PM -38.5177 154.9462 273° West  Level Estimated
07:06PM -38.5120 154.8059 273° West  Level Estimated
07:07PM -38.5061 154.6657 273° West  Level Estimated
07:08PM -38.5001 154.5255 273° West  Level Estimated
07:09PM -38.4939 154.3853 273° West  Level Estimated
07:10PM -38.4876 154.2451 273° West  Level Estimated
07:11PM -38.4810 154.1049 273° West  Level Estimated
07:11PM -38.4471 153.5826 274° West 36,000  Level Aus ATC (Calculated)
07:12PM -38.4743 153.9648 273° West  Level Estimated
07:13PM -38.4344 153.3376 274° West  Level Estimated
07:14PM -38.4269 153.1976 274° West  Level Estimated
07:14PM -38.4217 153.1322 275° West 36,000  Level Aus ATC (Calculated)
07:15PM -38.4140 152.9922 274° West  Level Estimated
07:16PM -38.4061 152.8523 274° West  Level Estimated
07:17PM -38.3981 152.7125 274° West  Level Estimated
07:18PM -38.3899 152.5726 274° West  Level Estimated
07:19PM -38.3815 152.4328 274° West  Level Estimated
07:20PM -38.3730 152.2930 274° West  Level Estimated
07:21PM -38.3643 152.1533 274° West  Level Estimated
07:22PM -38.3555 152.0136 275° West  Level Estimated
07:23PM -38.3464 151.8739 275° West  Level Estimated
07:24PM -38.3372 151.7343 275° West  Level Estimated
07:25PM -38.3279 151.5947 275° West  Level Estimated
07:26PM -38.3184 151.4551 275° West  Level Estimated
07:27PM -38.3087 151.3156 275° West  Level Estimated
07:27PM -38.2774 150.9974 86° East 36,000  Level Aus ATC (Calculated)
07:28PM -38.2673 150.8580 275° West  Level Estimated
07:29PM -38.2571 150.7186 275° West  Level Estimated
07:29PM -38.2511 150.6611 93° East 36,000  Level Aus ATC (Calculated)
07:31PM -38.2305 150.3872 275° West  Level Estimated
07:32PM -38.2198 150.2479 276° West  Level Estimated
07:32PM -38.2071 150.1256 95° East 18,700  Level Aus ATC (Calculated)
07:34PM -38.1888 149.8937 276° West  Level Estimated
07:35PM -38.1776 149.7546 276° West  Level Estimated
07:36PM -38.1662 149.6155 276° West  Level Estimated
07:37PM -38.1546 149.4765 276° West  Level Estimated
07:38PM -38.1429 149.3376 276° West  Level Estimated
07:38PM -38.2709 151.1118 276° West 397 457 36,200  Level Aus ATC (RADAR)
07:40PM -38.2574 150.8878 274° West 378 435 36,200  Level Aus ATC (RADAR)
07:40PM -38.2545 150.8418 275° West 381 438 36,200  Level Aus ATC (RADAR)
07:41PM -38.2417 150.6134 274° West 400 460 36,200  Level Aus ATC (RADAR)
07:44PM -38.2135 150.1986 275° West 394 453 36,200  Level Aus ATC (RADAR)
07:46PM -38.1949 149.9869 276° West 392 451 36,200  Level Aus ATC (RADAR)
07:47PM -38.1778 149.7847 276° West 396 456 36,200  Level Aus ATC (RADAR)
07:48PM -38.1736 149.7376 276° West 395 455 36,200 -120 Level Aus ATC (RADAR)
07:49PM -38.1560 149.5390 276° West 405 466 36,000 -120 Descending FlightAware
07:50PM -38.1500 149.4750 277° West 405 466 36,000 120 Level FlightAware
07:50PM -38.1397 149.3589 277° West 395 455 36,200  Climbing Aus ATC (RADAR)
07:51PM -38.1380 149.3380 277° West 404 465 36,000 -240 Descending FlightAware
07:51PM -38.1290 149.2390 277° West 405 466 36,000 120 Level FlightAware
07:52PM -38.1213 149.1586 277° West 394 453 36,200  Climbing Aus ATC (RADAR)
07:52PM -38.1200 149.1450 277° West 404 465 36,000 -240 Descending FlightAware
07:53PM -38.1100 149.0380 277° West 403 464 36,000  Level FlightAware
07:53PM -38.1010 148.9450 277° West 403 464 36,000 180 Level FlightAware
07:54PM -38.1004 148.9355 277° West 394 453 36,200  Climbing Aus ATC (RADAR)
07:54PM -38.0920 148.8500 277° West 402 463 36,000 -240 Descending FlightAware
07:55PM -38.0820 148.7460 277° West 401 461 36,000  Level FlightAware
07:55PM -38.0730 148.6510 277° West 403 464 36,000  Level FlightAware
07:56PM -38.0640 148.5590 277° West 402 463 36,000 120 Level FlightAware
07:57PM -38.0734 148.6550 277° West 392 451 36,200  Climbing Aus ATC (RADAR)
07:57PM -38.0540 148.4540 277° West 402 463 36,000 -240 Descending FlightAware
07:57PM -38.0440 148.3590 278° West 402 463 36,000 120 Level FlightAware
07:58PM -38.0584 148.5034 278° West 391 450 36,200  Climbing Aus ATC (RADAR)
07:58PM -38.0340 148.2550 278° West 401 461 36,000 -300 Descending FlightAware
07:59PM -38.0240 148.1600 278° West 402 463 36,000  Level FlightAware
08:00PM -38.0140 148.0560 277° West 401 461 36,000  Level FlightAware
08:00PM -38.0040 147.9640 278° West 401 461 36,000  Level FlightAware
08:01PM -37.9930 147.8580 277° West 401 461 36,000  Level FlightAware
08:02PM -37.9830 147.7660 278° West 400 460 36,000  Level FlightAware
08:02PM -37.9730 147.6710 278° West 400 460 36,000 180 Level FlightAware
08:03PM -38.0149 148.0717 278° West 392 451 36,200  Climbing Aus ATC (RADAR)
08:03PM -37.9630 147.5680 278° West 400 460 36,000 -240 Descending FlightAware
08:04PM -37.9540 147.4860 278° West 399 459 36,000 120 Level FlightAware
08:04PM -37.9981 147.9091 278° West 391 450 36,200  Climbing Aus ATC (RADAR)
08:04PM -37.9430 147.3830 278° West 399 459 36,000 -240 Descending FlightAware
08:05PM -37.9310 147.2790 278° West 399 459 36,000  Level FlightAware
08:06PM -37.9240 147.2090 277° West 400 460 36,000  Level FlightAware
08:06PM -37.9130 147.1160 278° West 398 458 36,000 180 Level FlightAware
08:07PM -37.9651 147.5956 278° West 391 450 36,200 -1,200 Climbing Aus ATC (RADAR)
08:07PM -37.9030 147.0240 278° West 394 453 35,200 -2,520 Descending FlightAware
08:08PM -37.8920 146.9220 278° West 388 447 33,600 -2,220 Descending FlightAware
08:08PM -37.8810 146.8310 279° West 381 438 32,100 -2,280 Descending FlightAware
08:09PM -37.8720 146.7450 278° West 376 433 30,600 -2,220 Descending FlightAware
08:10PM -37.8600 146.6490 279° West 371 427 29,000 -2,160 Descending FlightAware
08:11PM -37.8510 146.5630 278° West 368 423 27,600 -2,160 Descending FlightAware
08:11PM -37.8390 146.4670 279° West 363 418 26,000 -2,220 Descending FlightAware
08:12PM -37.8300 146.3830 278° West 364 419 24,500 -2,340 Descending FlightAware
08:13PM -37.8190 146.2960 279° West 381 438 22,900 4,440 Descending FlightAware
08:13PM -37.8639 146.6858 279° West 371 427 29,800 -1,380 Climbing Aus ATC (RADAR)
08:13PM -37.8070 146.1960 279° West 379 436 21,900 -10,260 Descending FlightAware
08:14PM -37.7970 146.1090 278° West 372 428 20,600 3,420 Descending FlightAware
08:15PM -37.8412 146.4827 278° West 365 420 26,500 -2,280 Climbing Aus ATC (RADAR)
08:15PM -37.7860 146.0130 278° West 369 425 18,900 -11,040 Descending FlightAware
08:16PM -37.7740 145.9170 279° West 366 421 17,300 -2,160 Descending FlightAware
08:16PM -37.7640 145.8330 279° West 363 418 15,900 5,640 Descending FlightAware
08:16PM -37.8141 146.2585 279° West 379 436 22,600 -1,980 Climbing Aus ATC (RADAR)
08:17PM -37.7550 145.7580 279° West 358 412 14,600 -8,400 Descending FlightAware
08:18PM -37.7420 145.6570 279° West 354 407 13,000 5,280 Descending FlightAware
08:18PM -37.7925 146.0734 279° West 371 427 20,100 -1,920 Climbing Aus ATC (RADAR)
08:18PM -37.7340 145.5910 279° West 352 405 11,900 -2,160 Descending FlightAware
08:21PM -37.7007 145.2743 277° West  Level FlightAware Approximate
08:21PM -37.7439 145.6743 277° West 354 407 13,400  Level Aus ATC (RADAR)
08:21PM -37.7230 145.2500 277° West 261 300 8,800 -6,720 Descending FlightAware
08:22PM -37.7240 145.2040 268° West 253 291 8,400 -840 Descending FlightAware
08:22PM -37.7240 145.1610 270° West 254 292 8,000 2,820 Descending FlightAware
08:23PM -37.7227 145.5020 270° West 347 399 10,600 -720 Climbing Aus ATC (RADAR)
08:23PM -37.7250 145.1230 270° West 247 284 7,700 -6,420 Descending FlightAware
08:23PM -37.7260 145.0950 267° West 239 275 7,500 -900 Descending FlightAware
08:24PM -37.7270 145.0430 269° West 228 262 6,800 -1,500 Descending FlightAware
08:24PM -37.7280 145.0090 268° West 222 255 5,900 -1,980 Descending FlightAware
08:25PM -37.7350 144.9720 257° West 213 245 5,000 -1,800 Descending FlightAware
08:25PM -37.7500 144.9490 230° Southwest 205 236 4,300 -1,560 Descending FlightAware
08:25PM -37.7630 144.9260 234° Southwest 199 229 3,700 -1,200 Descending FlightAware
08:26PM -37.7760 144.8930 244° Southwest 176 203 3,100 -1,140 Descending FlightAware
08:26PM -37.7660 144.8720 301° West 156 180 2,600 -1,440 Descending FlightAware
08:27PM -37.7490 144.8550 322° Northwest 142 163 1,800 5,700 Descending FlightAware
08:27PM -37.7268 145.0438 322° Northwest 231 266 7,000 -1,200 Climbing Aus ATC (RADAR)
08:27PM -37.7340 144.8500 322° Northwest 147 169 1,300 -9,540 Descending FlightAware
08:28PM -37.7120 144.8460 352° North 146 168 800 -900 Descending FlightAware
08:28PM -37.6930 144.8420 351° North 151 174 400 -840 Descending FlightAware